LEGR/GRX METAR and TAF weather

Enter ICAO airport designator
Station Type Date Time Source
LEGR METAR 2020/01/21 09:30 UTC NOAA

LEGR 210930Z 34006KT 290V030 9999 FEW035 06/02 Q1012


Station Type Date Time Source
LEGR Decoded METAR 2020/01/21 09:30 UTC NOAA

Granada / Aeropuerto, Spain (LEGR) 37-11N 003-47W 570M
Jan 21, 2020 - 04:30 AM EST / 2020.01.21 0930 UTC
Wind: from the NNW (340 degrees) at 7 MPH (6 KT) (direction variable):0
Visibility: greater than 7 mile(s):0
Sky conditions: mostly clear
Temperature: 42 F (6 C)
Dew Point: 35 F (2 C)
Relative Humidity: 75%
Pressure (altimeter): 29.88 in. Hg (1012 hPa)
ob: LEGR 210930Z 34006KT 290V030 9999 FEW035 06/02 Q1012
cycle: 9

Station Type Date Time Source
LEGR TAF 2020/01/21 09:27 UTC NOAA

TAF LEGR 210800Z 2109/2209 VRB02KT 9999 SCT020 SCT040 TX10/2115Z TN01/2207Z PROB30
TEMPO 2114/2201 4000 SHRA BKN014 SCT030TCU

Example: see airport list